createdAt,value
2022-08-17T00:00:09.185Z,12.13
2022-08-17T00:02:59.935Z,11.27
2022-08-17T00:05:37.899Z,10.45
2022-08-17T00:08:04.998Z,11.23
2022-08-17T00:10:32.560Z,10.85
2022-08-17T00:12:59.710Z,11.50
2022-08-17T00:15:26.677Z,13.35
2022-08-17T00:17:53.778Z,14.43
2022-08-17T00:20:23.367Z,15.43
2022-08-17T00:23:16.079Z,15.75
2022-08-17T00:25:45.740Z,15.10
2022-08-17T00:28:15.867Z,14.07
2022-08-17T00:30:53.188Z,15.15
2022-08-17T00:33:27.328Z,14.43
2022-08-17T00:35:55.794Z,11.77
2022-08-17T00:38:24.438Z,12.38
2022-08-17T00:40:59.242Z,12.43
2022-08-17T00:43:39.407Z,11.20
2022-08-17T00:46:13.800Z,11.93
2022-08-17T00:48:42.115Z,10.80
2022-08-17T00:51:19.843Z,10.90
2022-08-17T00:54:19.152Z,11.35
2022-08-17T00:56:56.819Z,10.60
2022-08-17T00:59:27.657Z,10.90
2022-08-17T01:01:54.930Z,10.47
2022-08-17T01:04:22.702Z,10.98
2022-08-17T01:06:51.198Z,10.20
2022-08-17T01:09:19.485Z,10.57
2022-08-17T01:11:52.442Z,10.48
2022-08-17T01:14:25.530Z,10.40
2022-08-17T01:16:55.910Z,10.18
2022-08-17T01:19:29.576Z,9.93
2022-08-17T01:22:07.558Z,10.27
2022-08-17T01:24:37.301Z,10.80
2022-08-17T01:27:10.474Z,10.35
2022-08-17T01:29:39.436Z,10.23
2022-08-17T01:32:07.969Z,10.48
2022-08-17T01:34:42.515Z,11.15
2022-08-17T01:37:10.821Z,10.38
2022-08-17T01:39:43.597Z,11.70
2022-08-17T01:42:17.974Z,11.80
2022-08-17T01:44:44.964Z,12.65
2022-08-17T01:47:11.937Z,12.65
2022-08-17T01:49:39.550Z,12.75
2022-08-17T01:52:09.917Z,14.18
2022-08-17T01:54:39.878Z,11.90
2022-08-17T01:57:07.200Z,12.02
2022-08-17T01:59:34.237Z,11.95
2022-08-17T02:02:01.357Z,13.20
2022-08-17T02:04:28.241Z,11.98
2022-08-17T02:06:55.086Z,12.73
2022-08-17T02:09:29.917Z,11.65
2022-08-17T02:11:59.264Z,12.07
2022-08-17T02:14:26.765Z,11.38
2022-08-17T02:16:54.208Z,11.35
2022-08-17T02:19:21.986Z,11.48
2022-08-17T02:21:51.268Z,9.77
2022-08-17T02:24:58.390Z,9.75
2022-08-17T02:27:10.031Z,10.50
2022-08-17T02:29:37.279Z,10.10
2022-08-17T02:32:05.110Z,10.18
2022-08-17T02:34:32.519Z,9.52
2022-08-17T02:36:59.434Z,9.95
2022-08-17T02:39:26.307Z,9.93
2022-08-17T02:42:04.080Z,9.73
2022-08-17T02:44:39.431Z,9.73
2022-08-17T02:47:08.794Z,9.48
2022-08-17T02:49:36.197Z,9.48
2022-08-17T02:52:05.375Z,9.43
2022-08-17T02:54:41.131Z,9.32
2022-08-17T02:57:10.037Z,8.98
2022-08-17T02:59:38.281Z,9.45
2022-08-17T03:02:07.547Z,9.48
2022-08-17T03:04:35.300Z,9.55
2022-08-17T03:07:03.008Z,9.65
2022-08-17T03:09:29.957Z,9.63
2022-08-17T03:12:06.520Z,9.20
2022-08-17T03:14:34.531Z,9.23
2022-08-17T03:17:02.840Z,9.00
2022-08-17T03:19:30.416Z,8.57
2022-08-17T03:22:01.292Z,8.85
2022-08-17T03:24:48.142Z,10.10
2022-08-17T03:27:15.509Z,11.43
2022-08-17T03:29:42.331Z,11.30
2022-08-17T03:32:13.570Z,11.23
2022-08-17T03:34:41.153Z,10.68
2022-08-17T03:37:08.339Z,10.73
2022-08-17T03:39:35.232Z,10.77
2022-08-17T03:42:07.965Z,12.30
2022-08-17T03:44:57.803Z,13.23
2022-08-17T03:47:43.461Z,13.65
2022-08-17T03:50:30.914Z,14.38
2022-08-17T03:53:16.386Z,17.13
2022-08-17T03:56:02.146Z,17.00
2022-08-17T03:58:29.023Z,18.05
2022-08-17T04:00:56.005Z,16.60
2022-08-17T04:03:22.901Z,18.88
2022-08-17T04:05:49.726Z,20.73
2022-08-17T04:08:16.556Z,22.23
2022-08-17T04:10:45.149Z,20.88
2022-08-17T04:13:13.082Z,22.73
2022-08-17T04:15:40.295Z,24.55
2022-08-17T04:18:07.733Z,22.02
2022-08-17T04:20:37.989Z,23.52
2022-08-17T04:23:12.084Z,23.27
2022-08-17T04:25:42.133Z,22.40
2022-08-17T04:28:15.889Z,25.08
2022-08-17T04:30:45.306Z,25.35
2022-08-17T04:33:18.770Z,26.50
2022-08-17T04:35:49.437Z,28.50
2022-08-17T04:38:19.201Z,28.00
2022-08-17T04:41:04.990Z,27.95
2022-08-17T04:43:34.303Z,28.15
2022-08-17T04:46:05.032Z,29.02
2022-08-17T04:48:37.231Z,28.92
2022-08-17T04:51:11.563Z,28.80
2022-08-17T04:53:41.132Z,30.73
2022-08-17T04:56:11.804Z,30.45
2022-08-17T04:58:45.119Z,30.23
2022-08-17T05:01:12.320Z,32.33
2022-08-17T05:03:39.326Z,32.30
2022-08-17T05:06:06.471Z,31.23
2022-08-17T05:08:33.582Z,32.85
2022-08-17T05:11:00.738Z,32.08
2022-08-17T05:13:29.865Z,32.35
2022-08-17T05:15:59.608Z,33.03
2022-08-17T05:18:27.687Z,34.90
2022-08-17T05:20:54.787Z,34.17
2022-08-17T05:23:24.267Z,33.35
2022-08-17T05:25:54.847Z,34.08
2022-08-17T05:28:27.453Z,32.58
2022-08-17T05:30:57.433Z,33.45
2022-08-17T05:33:28.089Z,31.88
2022-08-17T05:35:56.983Z,30.05
2022-08-17T05:38:25.570Z,29.55
2022-08-17T05:40:53.287Z,29.60
2022-08-17T05:43:25.403Z,29.58
2022-08-17T05:46:20.438Z,30.02
2022-08-17T05:49:11.970Z,30.20
2022-08-17T05:51:44.406Z,29.88
2022-08-17T05:54:49.596Z,29.98
2022-08-17T05:57:22.095Z,28.58
2022-08-17T06:00:01.156Z,29.35
2022-08-17T06:02:30.929Z,26.80
2022-08-17T06:05:22.703Z,25.05
2022-08-17T06:07:58.161Z,24.45
2022-08-17T06:10:36.017Z,24.65
2022-08-17T06:13:41.210Z,24.67
2022-08-17T06:16:31.079Z,24.38
2022-08-17T06:19:16.157Z,25.33
2022-08-17T06:21:47.813Z,23.50
2022-08-17T06:26:53.998Z,24.40
2022-08-17T06:29:42.640Z,22.05
2022-08-17T06:32:13.000Z,22.33
2022-08-17T06:34:41.669Z,22.27
2022-08-17T06:37:40.929Z,21.80
2022-08-17T06:40:37.855Z,21.75
2022-08-17T06:43:33.219Z,20.88
2022-08-17T06:46:13.082Z,20.67
2022-08-17T06:48:50.136Z,19.92
2022-08-17T06:51:34.155Z,19.58
2022-08-17T06:54:22.499Z,17.33
2022-08-17T06:56:57.397Z,17.83
2022-08-17T06:59:55.444Z,17.30
2022-08-17T07:02:55.654Z,16.52
2022-08-17T07:05:42.740Z,15.00
2022-08-17T07:08:12.722Z,14.88
2022-08-17T07:10:46.312Z,14.27
2022-08-17T07:13:51.093Z,13.98
2022-08-17T07:16:25.085Z,13.85
2022-08-17T07:18:54.676Z,13.93
2022-08-17T07:22:00.474Z,13.40
2022-08-17T07:24:47.353Z,12.50
2022-08-17T07:27:16.553Z,11.07
2022-08-17T07:30:08.038Z,11.40
2022-08-17T07:32:47.637Z,11.30
2022-08-17T07:35:40.936Z,11.45
2022-08-17T07:38:27.802Z,10.75
2022-08-17T07:40:58.098Z,10.43
2022-08-17T07:43:29.626Z,10.68
2022-08-17T07:46:19.479Z,9.95
2022-08-17T07:48:52.750Z,10.52
2022-08-17T07:51:23.077Z,10.02
2022-08-17T07:53:50.048Z,8.90
2022-08-17T07:56:46.660Z,9.30
2022-08-17T07:59:18.374Z,9.32
2022-08-17T08:01:58.930Z,8.80
2022-08-17T08:05:02.079Z,9.20
2022-08-17T08:07:38.219Z,9.60
2022-08-17T08:10:36.829Z,8.80
2022-08-17T08:13:08.514Z,8.85
2022-08-17T08:15:53.935Z,8.90
2022-08-17T08:18:47.601Z,8.90
2022-08-17T08:21:44.114Z,8.35
2022-08-17T08:24:34.807Z,7.45
2022-08-17T08:27:15.997Z,8.18
2022-08-17T08:30:05.304Z,7.70
2022-08-17T08:32:46.548Z,7.05
2022-08-17T08:35:37.107Z,7.40
2022-08-17T08:38:20.313Z,7.20
2022-08-17T08:41:12.087Z,6.32
2022-08-17T08:46:35.602Z,6.05
2022-08-17T08:49:33.795Z,6.00
2022-08-17T08:52:25.746Z,6.03
2022-08-17T08:55:01.188Z,5.93
2022-08-17T08:57:34.712Z,6.63
2022-08-17T09:00:20.875Z,6.03
2022-08-17T09:03:51.714Z,5.40
2022-08-17T09:06:37.925Z,6.07
2022-08-17T09:09:26.407Z,5.30
2022-08-17T09:12:16.886Z,5.45
2022-08-17T09:15:18.462Z,6.07
2022-08-17T09:18:59.866Z,5.32
2022-08-17T09:21:47.946Z,5.55
2022-08-17T09:24:44.155Z,5.82
2022-08-17T09:27:15.631Z,4.85
2022-08-17T09:32:40.481Z,5.82
2022-08-17T09:35:19.933Z,5.32
2022-08-17T09:38:18.285Z,5.45
2022-08-17T09:41:12.841Z,5.25
2022-08-17T09:43:55.383Z,5.90
2022-08-17T09:46:35.109Z,5.45
2022-08-17T09:49:21.861Z,5.07
2022-08-17T09:52:00.255Z,5.53
2022-08-17T09:54:40.850Z,5.43
2022-08-17T09:57:31.774Z,5.30
2022-08-17T10:00:10.814Z,4.85
2022-08-17T10:03:06.198Z,4.90
2022-08-17T10:05:46.526Z,4.97
2022-08-17T10:08:52.540Z,5.25
2022-08-17T10:12:12.759Z,5.50
2022-08-17T10:15:08.014Z,5.38
2022-08-17T10:17:56.841Z,5.15
2022-08-17T10:20:30.282Z,5.60
2022-08-17T10:23:21.879Z,5.38
2022-08-17T10:29:11.367Z,5.63
2022-08-17T10:31:46.593Z,5.78
2022-08-17T10:34:45.008Z,5.20
2022-08-17T10:37:37.865Z,5.40
2022-08-17T10:40:36.428Z,5.28
2022-08-17T10:43:15.406Z,5.90
2022-08-17T10:45:46.041Z,6.72
2022-08-17T10:48:14.110Z,5.82
2022-08-17T10:50:56.078Z,5.82
2022-08-17T10:53:32.045Z,5.72
2022-08-17T10:56:13.995Z,6.20
2022-08-17T10:58:54.722Z,6.30
2022-08-17T11:02:14.016Z,6.00
2022-08-17T11:04:43.641Z,6.00
2022-08-17T11:07:19.586Z,6.53
2022-08-17T11:10:05.336Z,5.90
2022-08-17T11:12:51.319Z,5.80
2022-08-17T11:15:59.486Z,6.35
2022-08-17T11:19:05.961Z,6.65
2022-08-17T11:21:57.340Z,6.35
2022-08-17T11:24:38.153Z,6.07
2022-08-17T11:27:13.917Z,6.43
2022-08-17T11:29:53.524Z,7.13
2022-08-17T11:32:37.408Z,6.97
2022-08-17T11:35:32.165Z,6.57
2022-08-17T11:38:16.451Z,6.85
2022-08-17T11:41:12.459Z,6.65
2022-08-17T11:44:16.535Z,6.75
2022-08-17T11:47:17.238Z,7.03
2022-08-17T11:50:17.863Z,6.75
2022-08-17T11:52:47.640Z,6.85
2022-08-17T11:55:36.363Z,7.60
2022-08-17T11:58:30.047Z,7.30
2022-08-17T12:01:06.941Z,7.50
2022-08-17T12:03:33.786Z,7.63
2022-08-17T12:06:05.769Z,8.10
2022-08-17T12:08:38.354Z,7.93
2022-08-17T12:11:16.587Z,8.43
2022-08-17T12:14:04.761Z,8.30
2022-08-17T12:16:31.592Z,7.80
2022-08-17T12:19:02.444Z,8.07
2022-08-17T12:21:51.854Z,8.10
2022-08-17T12:24:29.282Z,8.50
2022-08-17T12:26:59.674Z,7.97
2022-08-17T12:29:38.931Z,8.40
2022-08-17T12:32:13.130Z,8.65
2022-08-17T12:34:42.711Z,8.48
2022-08-17T12:37:36.489Z,8.57
2022-08-17T12:40:17.599Z,8.02
2022-08-17T12:42:56.608Z,7.82
2022-08-17T12:45:41.915Z,8.80
2022-08-17T12:48:12.436Z,8.73
2022-08-17T12:50:45.103Z,9.20
2022-08-17T12:53:17.397Z,8.27
2022-08-17T12:55:44.608Z,8.57
2022-08-17T12:58:16.996Z,9.32
2022-08-17T13:00:57.946Z,9.35
2022-08-17T13:06:25.668Z,9.80
2022-08-17T13:08:52.504Z,10.73
2022-08-17T13:11:24.251Z,9.93
2022-08-17T13:13:55.129Z,9.68
2022-08-17T13:16:23.772Z,10.75
2022-08-17T13:19:15.175Z,10.68
2022-08-17T13:21:54.087Z,10.27
2022-08-17T13:24:25.997Z,10.60
2022-08-17T13:26:54.455Z,10.40
2022-08-17T13:29:29.599Z,10.38
2022-08-17T13:32:13.114Z,10.55
2022-08-17T13:35:12.469Z,11.25
2022-08-17T13:37:42.616Z,9.20
2022-08-17T13:40:09.595Z,8.65
2022-08-17T13:42:52.407Z,7.90
2022-08-17T13:45:36.369Z,8.15
2022-08-17T13:48:07.748Z,11.93
2022-08-17T13:50:56.409Z,11.63
2022-08-17T13:53:40.397Z,11.70
2022-08-17T13:56:38.301Z,14.45
2022-08-17T13:59:38.230Z,14.55
2022-08-17T14:02:13.951Z,14.18
2022-08-17T14:04:44.165Z,13.60
2022-08-17T14:07:13.563Z,13.07
2022-08-17T14:09:47.802Z,12.50
2022-08-17T14:12:18.077Z,12.65
2022-08-17T14:14:45.373Z,9.57
2022-08-17T14:17:12.497Z,9.35
2022-08-17T14:19:39.870Z,10.07
2022-08-17T14:22:19.503Z,9.55
2022-08-17T14:24:46.407Z,8.70
2022-08-17T14:27:13.226Z,8.90
2022-08-17T14:29:41.301Z,9.00
2022-08-17T14:32:20.602Z,8.25
2022-08-17T14:34:49.638Z,7.30
2022-08-17T14:37:20.794Z,7.38
2022-08-17T14:39:48.039Z,7.13
2022-08-17T14:42:15.576Z,7.25
2022-08-17T14:44:42.478Z,7.18
2022-08-17T14:47:15.797Z,7.03
2022-08-17T14:49:42.633Z,7.82
2022-08-17T14:52:12.937Z,7.30
2022-08-17T14:54:45.150Z,7.10
2022-08-17T14:57:24.880Z,7.40
2022-08-17T14:59:59.917Z,7.13
2022-08-17T15:02:29.631Z,7.32
2022-08-17T15:05:02.994Z,7.32
2022-08-17T15:07:31.046Z,6.63
2022-08-17T15:10:02.052Z,6.70
2022-08-17T15:12:33.656Z,6.68
2022-08-17T15:15:01.836Z,6.50
2022-08-17T15:17:44.397Z,7.18
2022-08-17T15:20:19.148Z,7.00
2022-08-17T15:22:49.800Z,6.75
2022-08-17T15:25:18.962Z,6.50
2022-08-17T15:27:46.235Z,6.25
2022-08-17T15:30:13.622Z,6.20
2022-08-17T15:32:50.896Z,6.65
2022-08-17T15:35:26.798Z,6.72
2022-08-17T15:37:56.619Z,6.28
2022-08-17T15:40:23.446Z,6.15
2022-08-17T15:42:51.130Z,6.40
2022-08-17T15:45:23.034Z,6.90
2022-08-17T15:47:49.947Z,6.07
2022-08-17T15:50:17.030Z,6.28
2022-08-17T15:52:45.001Z,6.55
2022-08-17T15:55:13.959Z,6.68
2022-08-17T15:57:41.311Z,6.90
2022-08-17T16:00:09.813Z,6.70
2022-08-17T16:03:14.013Z,6.50
2022-08-17T16:05:27.336Z,7.05
2022-08-17T16:07:55.840Z,6.72
2022-08-17T16:10:35.509Z,7.30
2022-08-17T16:13:04.239Z,7.18
2022-08-17T16:15:31.987Z,7.53
2022-08-17T16:17:59.653Z,7.45
2022-08-17T16:20:27.088Z,7.70
2022-08-17T16:22:54.954Z,8.50
2022-08-17T16:25:52.533Z,8.90
2022-08-17T16:28:20.108Z,7.72
2022-08-17T16:30:46.951Z,7.57
2022-08-17T16:33:15.080Z,8.27
2022-08-17T16:35:42.169Z,7.70
2022-08-17T16:38:09.630Z,7.53
2022-08-17T16:40:36.692Z,7.43
2022-08-17T16:43:07.030Z,7.78
2022-08-17T16:45:36.773Z,7.43
2022-08-17T16:48:04.514Z,7.25
2022-08-17T16:50:32.346Z,7.88
2022-08-17T16:53:08.283Z,7.05
2022-08-17T16:55:35.835Z,7.32
2022-08-17T16:58:06.880Z,7.63
2022-08-17T17:00:34.127Z,7.47
2022-08-17T17:03:19.090Z,7.18
2022-08-17T17:06:13.496Z,7.10
2022-08-17T17:08:52.287Z,7.45
2022-08-17T17:11:27.011Z,7.43
2022-08-17T17:14:01.571Z,7.15
2022-08-17T17:16:45.690Z,7.05
2022-08-17T17:19:40.642Z,7.00
2022-08-17T17:22:30.736Z,7.05
2022-08-17T17:25:06.446Z,6.40
2022-08-17T17:28:01.237Z,7.18
2022-08-17T17:31:01.931Z,7.38
2022-08-17T17:33:48.946Z,7.90
2022-08-17T17:36:28.763Z,8.20
2022-08-17T17:39:12.068Z,7.70
2022-08-17T17:41:51.280Z,7.28
2022-08-17T17:44:24.715Z,6.72
2022-08-17T17:47:00.309Z,6.57
2022-08-17T17:49:38.580Z,7.22
2022-08-17T17:52:19.439Z,6.90
2022-08-17T17:55:10.466Z,7.10
2022-08-17T17:57:58.915Z,7.22
2022-08-17T18:00:30.105Z,6.90
2022-08-17T18:03:20.423Z,7.43
2022-08-17T18:05:47.229Z,7.13
2022-08-17T18:08:42.013Z,7.40
2022-08-17T18:11:24.540Z,7.80
2022-08-17T18:14:14.475Z,7.90
2022-08-17T18:16:43.043Z,7.80
2022-08-17T18:19:19.852Z,7.18
2022-08-17T18:21:54.688Z,7.80
2022-08-17T18:24:38.731Z,9.70
2022-08-17T18:27:28.589Z,10.48
2022-08-17T18:29:57.588Z,9.85
2022-08-17T18:32:31.163Z,10.20
2022-08-17T18:35:00.226Z,9.40
2022-08-17T18:37:40.303Z,9.70
2022-08-17T18:40:16.307Z,10.50
2022-08-17T18:43:04.586Z,8.98
2022-08-17T18:45:40.930Z,8.60
2022-08-17T18:48:20.744Z,8.52
2022-08-17T18:50:47.777Z,8.40
2022-08-17T18:53:33.206Z,8.45
2022-08-17T18:56:27.630Z,9.32
2022-08-17T18:59:22.609Z,7.57
2022-08-17T19:02:27.208Z,7.43
2022-08-17T19:05:13.694Z,7.65
2022-08-17T19:07:45.545Z,7.75
2022-08-17T19:10:31.851Z,6.75
2022-08-17T19:13:26.955Z,7.13
2022-08-17T19:16:12.168Z,7.22
2022-08-17T19:18:53.663Z,7.30
2022-08-17T19:21:23.243Z,7.20
2022-08-17T19:24:03.451Z,8.15
2022-08-17T19:26:54.369Z,7.85
2022-08-17T19:29:34.832Z,7.95
2022-08-17T19:32:02.041Z,7.47
2022-08-17T19:34:34.774Z,7.40
2022-08-17T19:37:38.785Z,7.22
2022-08-17T19:43:47.955Z,7.30
2022-08-17T19:46:24.568Z,7.38
2022-08-17T19:48:54.055Z,6.85
2022-08-17T19:51:45.469Z,7.32
2022-08-17T19:54:45.209Z,8.10
2022-08-17T19:57:11.928Z,7.50
2022-08-17T19:59:55.941Z,7.10
2022-08-17T20:02:34.869Z,6.28
2022-08-17T20:05:18.674Z,6.78
2022-08-17T20:08:05.749Z,6.85
2022-08-17T20:10:58.700Z,7.00
2022-08-17T20:13:35.729Z,6.50
2022-08-17T20:16:04.287Z,6.18
2022-08-17T20:18:36.303Z,6.60
2022-08-17T20:21:26.823Z,7.00
2022-08-17T20:24:16.618Z,7.63
2022-08-17T20:26:58.500Z,7.30
2022-08-17T20:29:51.673Z,7.03
2022-08-17T20:32:28.547Z,7.55
2022-08-17T20:35:09.196Z,6.82
2022-08-17T20:37:39.342Z,6.78
2022-08-17T20:40:09.424Z,6.90
2022-08-17T20:42:37.575Z,6.97
2022-08-17T20:45:26.100Z,7.25
2022-08-17T20:48:27.257Z,7.68
2022-08-17T20:50:56.381Z,7.00
2022-08-17T20:53:48.123Z,7.15
2022-08-17T20:56:49.165Z,7.00
2022-08-17T20:59:30.348Z,6.72
2022-08-17T21:02:18.952Z,6.45
2022-08-17T21:05:05.452Z,6.50
2022-08-17T21:07:43.000Z,6.22
2022-08-17T21:10:25.964Z,6.40
2022-08-17T21:12:55.841Z,6.93
2022-08-17T21:16:19.954Z,6.13
2022-08-17T21:19:00.440Z,6.22
2022-08-17T21:22:05.506Z,6.43
2022-08-17T21:25:06.031Z,6.25
2022-08-17T21:28:18.100Z,6.60
2022-08-17T21:30:54.478Z,5.97
2022-08-17T21:33:34.191Z,6.57
2022-08-17T21:36:12.971Z,6.68
2022-08-17T21:38:57.763Z,6.43
2022-08-17T21:41:30.825Z,6.70
2022-08-17T21:44:13.785Z,6.93
2022-08-17T21:46:46.737Z,7.10
2022-08-17T21:49:18.420Z,6.15
2022-08-17T21:51:50.521Z,6.95
2022-08-17T21:54:38.918Z,6.65
2022-08-17T21:57:14.724Z,5.70
2022-08-17T21:59:43.692Z,6.20
2022-08-17T22:02:24.008Z,6.22
2022-08-17T22:05:07.096Z,6.43
2022-08-17T22:07:50.621Z,6.28
2022-08-17T22:10:35.053Z,6.97
2022-08-17T22:13:16.717Z,6.43
2022-08-17T22:15:50.255Z,6.60
2022-08-17T22:18:26.920Z,6.22
2022-08-17T22:20:56.568Z,6.45
2022-08-17T22:23:47.041Z,7.00
2022-08-17T22:26:16.979Z,6.45
2022-08-17T22:28:53.587Z,7.55
2022-08-17T22:31:24.388Z,6.80
2022-08-17T22:34:09.486Z,7.28
2022-08-17T22:36:39.032Z,6.90
2022-08-17T22:39:28.484Z,7.30
2022-08-17T22:42:00.469Z,6.70
2022-08-17T22:44:37.818Z,6.50
2022-08-17T22:47:11.557Z,6.55
2022-08-17T22:49:53.889Z,6.55
2022-08-17T22:53:01.898Z,6.63
2022-08-17T22:55:50.080Z,6.88
2022-08-17T22:58:38.953Z,6.88
2022-08-17T23:01:29.733Z,7.68
2022-08-17T23:04:01.540Z,7.05
2022-08-17T23:08:57.705Z,7.20
2022-08-17T23:11:36.677Z,7.38
2022-08-17T23:14:15.846Z,7.05
2022-08-17T23:16:43.003Z,6.95
2022-08-17T23:19:11.537Z,7.05
2022-08-17T23:21:38.466Z,7.03
2022-08-17T23:24:07.883Z,7.53
2022-08-17T23:26:41.017Z,6.45
2022-08-17T23:29:09.434Z,7.70
2022-08-17T23:31:38.946Z,7.40
2022-08-17T23:34:11.643Z,7.38
2022-08-17T23:36:38.479Z,7.10
2022-08-17T23:39:07.027Z,7.85
2022-08-17T23:41:37.563Z,7.65
2022-08-17T23:44:05.936Z,7.28
2022-08-17T23:46:33.051Z,7.43
2022-08-17T23:49:00.513Z,7.28
2022-08-17T23:51:34.820Z,7.50
2022-08-17T23:54:11.652Z,7.45
2022-08-17T23:56:47.694Z,7.20
2022-08-17T23:59:16.410Z,7.05
